sensor_id;sensor_type;location;lat;lon;timestamp;P1;durP1;ratioP1;P2;durP2;ratioP2
71947;SDS011;59820;55.076;38.766;2022-09-03T00:02:06;4.90;;;1.90;;
71947;SDS011;59820;55.076;38.766;2022-09-03T00:10:21;6.30;;;2.42;;
71947;SDS011;59820;55.076;38.766;2022-09-03T00:12:55;4.50;;;1.65;;
71947;SDS011;59820;55.076;38.766;2022-09-03T00:15:27;5.75;;;2.00;;
71947;SDS011;59820;55.076;38.766;2022-09-03T00:18:03;5.20;;;2.08;;
71947;SDS011;59820;55.076;38.766;2022-09-03T00:20:38;5.10;;;1.63;;
71947;SDS011;59820;55.076;38.766;2022-09-03T00:23:26;4.75;;;2.00;;
71947;SDS011;59820;55.076;38.766;2022-09-03T00:25:57;4.75;;;1.70;;
71947;SDS011;59820;55.076;38.766;2022-09-03T00:28:53;5.30;;;2.00;;
71947;SDS011;59820;55.076;38.766;2022-09-03T00:31:26;4.78;;;1.85;;
71947;SDS011;59820;55.076;38.766;2022-09-03T00:34:44;4.35;;;1.73;;
71947;SDS011;59820;55.076;38.766;2022-09-03T00:36:58;5.68;;;2.30;;
71947;SDS011;59820;55.076;38.766;2022-09-03T00:39:25;4.97;;;2.00;;
71947;SDS011;59820;55.076;38.766;2022-09-03T00:42:08;4.70;;;1.90;;
71947;SDS011;59820;55.076;38.766;2022-09-03T00:55:55;5.03;;;2.00;;
71947;SDS011;59820;55.076;38.766;2022-09-03T01:00:57;4.70;;;2.10;;
71947;SDS011;59820;55.076;38.766;2022-09-03T01:03:32;6.20;;;2.30;;
71947;SDS011;59820;55.076;38.766;2022-09-03T01:06:23;4.85;;;1.95;;
71947;SDS011;59820;55.076;38.766;2022-09-03T01:17:00;5.82;;;2.30;;
71947;SDS011;59820;55.076;38.766;2022-09-03T01:42:32;5.55;;;2.35;;
71947;SDS011;59820;55.076;38.766;2022-09-03T01:48:20;6.22;;;2.00;;
71947;SDS011;59820;55.076;38.766;2022-09-03T01:59:33;5.50;;;2.20;;
71947;SDS011;59820;55.076;38.766;2022-09-03T02:02:26;5.38;;;1.90;;
71947;SDS011;59820;55.076;38.766;2022-09-03T02:05:04;5.07;;;2.10;;
71947;SDS011;59820;55.076;38.766;2022-09-03T02:07:39;6.72;;;2.03;;
71947;SDS011;59820;55.076;38.766;2022-09-03T02:10:15;4.63;;;1.95;;
71947;SDS011;59820;55.076;38.766;2022-09-03T02:12:46;6.40;;;2.40;;
71947;SDS011;59820;55.076;38.766;2022-09-03T02:15:17;5.60;;;2.40;;
71947;SDS011;59820;55.076;38.766;2022-09-03T02:17:46;6.77;;;2.50;;
71947;SDS011;59820;55.076;38.766;2022-09-03T02:20:19;6.20;;;2.40;;
71947;SDS011;59820;55.076;38.766;2022-09-03T02:22:49;5.53;;;2.17;;
71947;SDS011;59820;55.076;38.766;2022-09-03T02:25:16;5.67;;;2.40;;
71947;SDS011;59820;55.076;38.766;2022-09-03T02:27:42;6.72;;;2.60;;
71947;SDS011;59820;55.076;38.766;2022-09-03T02:30:10;5.65;;;2.13;;
71947;SDS011;59820;55.076;38.766;2022-09-03T02:32:36;6.15;;;2.42;;
71947;SDS011;59820;55.076;38.766;2022-09-03T02:35:02;6.40;;;2.50;;
71947;SDS011;59820;55.076;38.766;2022-09-03T02:37:30;6.07;;;2.30;;
71947;SDS011;59820;55.076;38.766;2022-09-03T02:39:56;6.10;;;2.30;;
71947;SDS011;59820;55.076;38.766;2022-09-03T02:42:22;5.80;;;2.20;;
71947;SDS011;59820;55.076;38.766;2022-09-03T02:44:56;6.63;;;2.25;;
71947;SDS011;59820;55.076;38.766;2022-09-03T02:47:29;6.97;;;2.25;;
71947;SDS011;59820;55.076;38.766;2022-09-03T02:49:58;6.97;;;2.60;;
71947;SDS011;59820;55.076;38.766;2022-09-03T02:52:24;6.85;;;2.70;;
71947;SDS011;59820;55.076;38.766;2022-09-03T02:54:50;6.55;;;2.58;;
71947;SDS011;59820;55.076;38.766;2022-09-03T02:57:16;7.30;;;2.70;;
71947;SDS011;59820;55.076;38.766;2022-09-03T02:59:42;6.07;;;2.47;;
71947;SDS011;59820;55.076;38.766;2022-09-03T03:02:10;6.30;;;2.47;;
71947;SDS011;59820;55.076;38.766;2022-09-03T03:04:36;6.05;;;2.72;;
71947;SDS011;59820;55.076;38.766;2022-09-03T03:07:04;5.97;;;2.47;;
71947;SDS011;59820;55.076;38.766;2022-09-03T03:09:30;7.65;;;2.60;;
71947;SDS011;59820;55.076;38.766;2022-09-03T03:11:56;8.27;;;2.88;;
71947;SDS011;59820;55.076;38.766;2022-09-03T03:14:22;6.25;;;2.70;;
71947;SDS011;59820;55.076;38.766;2022-09-03T03:16:49;8.00;;;3.10;;
71947;SDS011;59820;55.076;38.766;2022-09-03T03:19:16;8.48;;;3.05;;
71947;SDS011;59820;55.076;38.766;2022-09-03T03:21:42;7.82;;;3.45;;
71947;SDS011;59820;55.076;38.766;2022-09-03T03:24:08;8.23;;;3.40;;
71947;SDS011;59820;55.076;38.766;2022-09-03T03:26:34;7.15;;;3.20;;
71947;SDS011;59820;55.076;38.766;2022-09-03T03:29:01;6.77;;;2.97;;
71947;SDS011;59820;55.076;38.766;2022-09-03T03:31:29;6.60;;;2.85;;
71947;SDS011;59820;55.076;38.766;2022-09-03T03:33:57;7.05;;;2.75;;
71947;SDS011;59820;55.076;38.766;2022-09-03T03:36:26;6.20;;;2.45;;
71947;SDS011;59820;55.076;38.766;2022-09-03T03:38:56;6.28;;;2.50;;
71947;SDS011;59820;55.076;38.766;2022-09-03T03:41:24;5.78;;;2.40;;
71947;SDS011;59820;55.076;38.766;2022-09-03T03:44:03;6.00;;;2.70;;
71947;SDS011;59820;55.076;38.766;2022-09-03T03:46:32;7.00;;;2.50;;
71947;SDS011;59820;55.076;38.766;2022-09-03T03:48:59;7.47;;;2.80;;
71947;SDS011;59820;55.076;38.766;2022-09-03T03:51:26;7.67;;;3.40;;
71947;SDS011;59820;55.076;38.766;2022-09-03T03:53:53;7.03;;;3.10;;
71947;SDS011;59820;55.076;38.766;2022-09-03T03:56:21;7.03;;;3.00;;
71947;SDS011;59820;55.076;38.766;2022-09-03T03:58:49;6.45;;;2.65;;
71947;SDS011;59820;55.076;38.766;2022-09-03T04:01:17;6.90;;;2.67;;
71947;SDS011;59820;55.076;38.766;2022-09-03T04:03:45;6.82;;;3.05;;
71947;SDS011;59820;55.076;38.766;2022-09-03T04:06:12;7.10;;;2.95;;
71947;SDS011;59820;55.076;38.766;2022-09-03T04:08:40;5.30;;;2.50;;
71947;SDS011;59820;55.076;38.766;2022-09-03T04:11:09;6.55;;;2.78;;
71947;SDS011;59820;55.076;38.766;2022-09-03T04:13:38;6.28;;;2.67;;
71947;SDS011;59820;55.076;38.766;2022-09-03T04:16:09;5.23;;;2.30;;
71947;SDS011;59820;55.076;38.766;2022-09-03T04:18:38;6.40;;;2.60;;
71947;SDS011;59820;55.076;38.766;2022-09-03T04:23:38;5.32;;;2.20;;
71947;SDS011;59820;55.076;38.766;2022-09-03T04:26:06;5.30;;;2.00;;
71947;SDS011;59820;55.076;38.766;2022-09-03T04:28:34;5.88;;;2.25;;
71947;SDS011;59820;55.076;38.766;2022-09-03T04:31:01;4.65;;;2.00;;
71947;SDS011;59820;55.076;38.766;2022-09-03T04:33:28;4.73;;;1.83;;
71947;SDS011;59820;55.076;38.766;2022-09-03T04:36:05;5.10;;;1.90;;
71947;SDS011;59820;55.076;38.766;2022-09-03T04:38:33;5.28;;;2.00;;
71947;SDS011;59820;55.076;38.766;2022-09-03T04:41:01;4.17;;;1.70;;
71947;SDS011;59820;55.076;38.766;2022-09-03T04:43:28;4.97;;;1.92;;
71947;SDS011;59820;55.076;38.766;2022-09-03T04:46:01;5.38;;;1.55;;
71947;SDS011;59820;55.076;38.766;2022-09-03T04:48:30;6.28;;;2.30;;
71947;SDS011;59820;55.076;38.766;2022-09-03T04:53:34;5.32;;;1.80;;
71947;SDS011;59820;55.076;38.766;2022-09-03T04:56:01;4.68;;;2.00;;
71947;SDS011;59820;55.076;38.766;2022-09-03T04:58:28;3.77;;;1.70;;
71947;SDS011;59820;55.076;38.766;2022-09-03T05:00:54;4.78;;;1.90;;
71947;SDS011;59820;55.076;38.766;2022-09-03T05:03:20;4.53;;;1.95;;
71947;SDS011;59820;55.076;38.766;2022-09-03T05:05:53;4.27;;;1.70;;
71947;SDS011;59820;55.076;38.766;2022-09-03T05:08:21;4.47;;;2.00;;
71947;SDS011;59820;55.076;38.766;2022-09-03T05:10:47;4.60;;;1.95;;
71947;SDS011;59820;55.076;38.766;2022-09-03T05:13:14;4.72;;;2.00;;
71947;SDS011;59820;55.076;38.766;2022-09-03T05:15:39;4.10;;;1.80;;
71947;SDS011;59820;55.076;38.766;2022-09-03T05:18:08;4.30;;;1.83;;
71947;SDS011;59820;55.076;38.766;2022-09-03T05:20:34;4.82;;;1.70;;
71947;SDS011;59820;55.076;38.766;2022-09-03T05:23:01;8.87;;;2.80;;
71947;SDS011;59820;55.076;38.766;2022-09-03T05:25:28;6.82;;;2.20;;
71947;SDS011;59820;55.076;38.766;2022-09-03T05:27:56;4.40;;;1.80;;
71947;SDS011;59820;55.076;38.766;2022-09-03T05:30:25;4.25;;;1.90;;
71947;SDS011;59820;55.076;38.766;2022-09-03T05:32:51;5.82;;;1.75;;
71947;SDS011;59820;55.076;38.766;2022-09-03T05:35:17;4.97;;;1.83;;
71947;SDS011;59820;55.076;38.766;2022-09-03T05:37:44;6.10;;;1.77;;
71947;SDS011;59820;55.076;38.766;2022-09-03T05:40:10;4.57;;;1.80;;
71947;SDS011;59820;55.076;38.766;2022-09-03T05:42:36;4.63;;;1.75;;
71947;SDS011;59820;55.076;38.766;2022-09-03T05:45:09;3.45;;;1.40;;
71947;SDS011;59820;55.076;38.766;2022-09-03T05:47:36;4.00;;;1.63;;
71947;SDS011;59820;55.076;38.766;2022-09-03T05:50:07;3.35;;;1.30;;
71947;SDS011;59820;55.076;38.766;2022-09-03T05:52:35;3.63;;;1.50;;
71947;SDS011;59820;55.076;38.766;2022-09-03T05:55:02;3.40;;;1.27;;
71947;SDS011;59820;55.076;38.766;2022-09-03T05:57:29;3.22;;;1.35;;
71947;SDS011;59820;55.076;38.766;2022-09-03T05:59:55;4.27;;;1.50;;
71947;SDS011;59820;55.076;38.766;2022-09-03T06:02:21;4.35;;;1.38;;
71947;SDS011;59820;55.076;38.766;2022-09-03T06:04:48;5.05;;;1.33;;
71947;SDS011;59820;55.076;38.766;2022-09-03T06:07:15;3.90;;;1.10;;
71947;SDS011;59820;55.076;38.766;2022-09-03T06:09:41;3.20;;;1.10;;
71947;SDS011;59820;55.076;38.766;2022-09-03T06:12:07;3.83;;;1.25;;
71947;SDS011;59820;55.076;38.766;2022-09-03T06:14:32;4.50;;;1.87;;
71947;SDS011;59820;55.076;38.766;2022-09-03T06:16:58;5.28;;;1.38;;
71947;SDS011;59820;55.076;38.766;2022-09-03T06:19:25;4.78;;;1.25;;
71947;SDS011;59820;55.076;38.766;2022-09-03T06:21:51;3.90;;;1.38;;
71947;SDS011;59820;55.076;38.766;2022-09-03T06:24:18;5.47;;;1.40;;
71947;SDS011;59820;55.076;38.766;2022-09-03T06:26:47;5.05;;;1.73;;
71947;SDS011;59820;55.076;38.766;2022-09-03T06:29:13;4.47;;;1.60;;
71947;SDS011;59820;55.076;38.766;2022-09-03T06:31:40;4.80;;;1.67;;
71947;SDS011;59820;55.076;38.766;2022-09-03T06:34:08;7.07;;;2.10;;
71947;SDS011;59820;55.076;38.766;2022-09-03T06:36:34;3.88;;;1.40;;
71947;SDS011;59820;55.076;38.766;2022-09-03T06:39:00;3.95;;;1.20;;
71947;SDS011;59820;55.076;38.766;2022-09-03T06:41:27;6.28;;;2.08;;
71947;SDS011;59820;55.076;38.766;2022-09-03T06:44:00;4.03;;;1.50;;
71947;SDS011;59820;55.076;38.766;2022-09-03T06:46:31;3.33;;;1.20;;
71947;SDS011;59820;55.076;38.766;2022-09-03T06:49:00;3.72;;;1.58;;
71947;SDS011;59820;55.076;38.766;2022-09-03T06:51:27;4.47;;;1.33;;
71947;SDS011;59820;55.076;38.766;2022-09-03T06:53:58;5.90;;;1.40;;
71947;SDS011;59820;55.076;38.766;2022-09-03T06:56:28;3.50;;;1.20;;
71947;SDS011;59820;55.076;38.766;2022-09-03T06:58:58;3.40;;;1.00;;
71947;SDS011;59820;55.076;38.766;2022-09-03T07:01:26;3.03;;;1.10;;
71947;SDS011;59820;55.076;38.766;2022-09-03T07:03:58;3.60;;;1.10;;
71947;SDS011;59820;55.076;38.766;2022-09-03T07:06:32;4.90;;;1.45;;
71947;SDS011;59820;55.076;38.766;2022-09-03T07:09:04;4.27;;;1.60;;
71947;SDS011;59820;55.076;38.766;2022-09-03T07:11:31;4.10;;;1.35;;
71947;SDS011;59820;55.076;38.766;2022-09-03T07:14:01;3.58;;;1.23;;
71947;SDS011;59820;55.076;38.766;2022-09-03T07:16:32;3.67;;;1.30;;
71947;SDS011;59820;55.076;38.766;2022-09-03T07:19:01;3.22;;;1.10;;
71947;SDS011;59820;55.076;38.766;2022-09-03T07:21:29;3.17;;;1.20;;
71947;SDS011;59820;55.076;38.766;2022-09-03T07:23:58;2.90;;;1.00;;
71947;SDS011;59820;55.076;38.766;2022-09-03T07:26:25;3.80;;;1.13;;
71947;SDS011;59820;55.076;38.766;2022-09-03T07:28:53;3.13;;;1.10;;
71947;SDS011;59820;55.076;38.766;2022-09-03T07:31:22;3.88;;;1.10;;
71947;SDS011;59820;55.076;38.766;2022-09-03T07:36:23;3.22;;;1.17;;
71947;SDS011;59820;55.076;38.766;2022-09-03T07:38:52;3.38;;;1.05;;
71947;SDS011;59820;55.076;38.766;2022-09-03T07:41:21;3.75;;;1.20;;
71947;SDS011;59820;55.076;38.766;2022-09-03T07:43:49;3.88;;;1.20;;
71947;SDS011;59820;55.076;38.766;2022-09-03T07:46:19;3.30;;;1.30;;
71947;SDS011;59820;55.076;38.766;2022-09-03T07:48:50;4.65;;;1.58;;
71947;SDS011;59820;55.076;38.766;2022-09-03T07:51:21;3.67;;;1.30;;
71947;SDS011;59820;55.076;38.766;2022-09-03T07:53:53;4.65;;;1.65;;
71947;SDS011;59820;55.076;38.766;2022-09-03T07:56:22;3.40;;;1.20;;
71947;SDS011;59820;55.076;38.766;2022-09-03T07:58:48;3.40;;;1.33;;
71947;SDS011;59820;55.076;38.766;2022-09-03T08:01:16;3.70;;;1.10;;
71947;SDS011;59820;55.076;38.766;2022-09-03T08:03:44;4.03;;;1.27;;
71947;SDS011;59820;55.076;38.766;2022-09-03T08:06:13;4.18;;;1.60;;
71947;SDS011;59820;55.076;38.766;2022-09-03T08:08:40;3.28;;;1.40;;
71947;SDS011;59820;55.076;38.766;2022-09-03T08:11:18;5.03;;;1.37;;
71947;SDS011;59820;55.076;38.766;2022-09-03T08:13:46;3.65;;;1.50;;
71947;SDS011;59820;55.076;38.766;2022-09-03T08:16:15;3.22;;;1.23;;
71947;SDS011;59820;55.076;38.766;2022-09-03T08:18:45;4.70;;;1.70;;
71947;SDS011;59820;55.076;38.766;2022-09-03T08:21:13;5.07;;;2.10;;
71947;SDS011;59820;55.076;38.766;2022-09-03T08:23:41;4.23;;;2.03;;
71947;SDS011;59820;55.076;38.766;2022-09-03T08:26:09;4.72;;;1.92;;
71947;SDS011;59820;55.076;38.766;2022-09-03T08:28:35;3.42;;;1.52;;
71947;SDS011;59820;55.076;38.766;2022-09-03T08:33:32;5.43;;;1.60;;
71947;SDS011;59820;55.076;38.766;2022-09-03T08:36:09;3.37;;;1.40;;
71947;SDS011;59820;55.076;38.766;2022-09-03T08:38:38;3.72;;;1.55;;
71947;SDS011;59820;55.076;38.766;2022-09-03T08:43:34;4.30;;;1.77;;
71947;SDS011;59820;55.076;38.766;2022-09-03T08:46:15;3.67;;;1.60;;
71947;SDS011;59820;55.076;38.766;2022-09-03T08:48:41;3.93;;;1.73;;
71947;SDS011;59820;55.076;38.766;2022-09-03T08:51:07;4.38;;;1.70;;
71947;SDS011;59820;55.076;38.766;2022-09-03T08:53:48;3.60;;;1.60;;
71947;SDS011;59820;55.076;38.766;2022-09-03T08:56:28;4.32;;;1.83;;
71947;SDS011;59820;55.076;38.766;2022-09-03T08:58:56;3.90;;;1.70;;
71947;SDS011;59820;55.076;38.766;2022-09-03T09:01:29;4.30;;;2.22;;
71947;SDS011;59820;55.076;38.766;2022-09-03T09:07:20;3.50;;;1.70;;
71947;SDS011;59820;55.076;38.766;2022-09-03T09:10:19;4.05;;;1.50;;
71947;SDS011;59820;55.076;38.766;2022-09-03T09:13:19;3.93;;;1.57;;
71947;SDS011;59820;55.076;38.766;2022-09-03T09:21:19;3.63;;;1.60;;
71947;SDS011;59820;55.076;38.766;2022-09-03T09:24:05;4.20;;;1.88;;
71947;SDS011;59820;55.076;38.766;2022-09-03T09:26:38;5.03;;;1.90;;
71947;SDS011;59820;55.076;38.766;2022-09-03T09:29:07;4.07;;;1.70;;
71947;SDS011;59820;55.076;38.766;2022-09-03T09:31:39;4.55;;;1.90;;
71947;SDS011;59820;55.076;38.766;2022-09-03T09:34:08;3.65;;;1.60;;
71947;SDS011;59820;55.076;38.766;2022-09-03T09:36:36;4.20;;;1.27;;
71947;SDS011;59820;55.076;38.766;2022-09-03T09:39:13;4.00;;;1.70;;
71947;SDS011;59820;55.076;38.766;2022-09-03T09:41:41;3.45;;;1.40;;
71947;SDS011;59820;55.076;38.766;2022-09-03T09:44:16;5.68;;;1.90;;
71947;SDS011;59820;55.076;38.766;2022-09-03T09:46:44;3.50;;;1.40;;
71947;SDS011;59820;55.076;38.766;2022-09-03T09:52:13;6.00;;;1.60;;
71947;SDS011;59820;55.076;38.766;2022-09-03T09:54:41;3.50;;;1.70;;
71947;SDS011;59820;55.076;38.766;2022-09-03T09:57:14;4.03;;;1.80;;
71947;SDS011;59820;55.076;38.766;2022-09-03T09:59:48;3.40;;;1.60;;
71947;SDS011;59820;55.076;38.766;2022-09-03T10:02:25;3.38;;;1.70;;
71947;SDS011;59820;55.076;38.766;2022-09-03T10:04:59;3.97;;;1.60;;
71947;SDS011;59820;55.076;38.766;2022-09-03T10:07:39;3.47;;;1.70;;
71947;SDS011;59820;55.076;38.766;2022-09-03T10:10:06;5.05;;;1.60;;
71947;SDS011;59820;55.076;38.766;2022-09-03T10:12:42;3.78;;;1.77;;
71947;SDS011;59820;55.076;38.766;2022-09-03T10:15:57;4.40;;;2.27;;
71947;SDS011;59820;55.076;38.766;2022-09-03T10:18:40;4.07;;;1.90;;
71947;SDS011;59820;55.076;38.766;2022-09-03T10:23:49;6.13;;;2.50;;
71947;SDS011;59820;55.076;38.766;2022-09-03T10:26:22;3.40;;;1.75;;
71947;SDS011;59820;55.076;38.766;2022-09-03T10:29:02;5.07;;;1.90;;
71947;SDS011;59820;55.076;38.766;2022-09-03T10:34:19;4.93;;;1.80;;
71947;SDS011;59820;55.076;38.766;2022-09-03T10:39:22;3.85;;;1.48;;
71947;SDS011;59820;55.076;38.766;2022-09-03T10:45:16;5.03;;;1.50;;
71947;SDS011;59820;55.076;38.766;2022-09-03T10:50:51;5.95;;;1.70;;
71947;SDS011;59820;55.076;38.766;2022-09-03T11:09:34;4.40;;;1.90;;
71947;SDS011;59820;55.076;38.766;2022-09-03T11:12:15;4.78;;;1.90;;
71947;SDS011;59820;55.076;38.766;2022-09-03T11:14:50;4.38;;;1.80;;
71947;SDS011;59820;55.076;38.766;2022-09-03T11:17:38;4.72;;;2.10;;
71947;SDS011;59820;55.076;38.766;2022-09-03T11:22:44;5.73;;;2.27;;
71947;SDS011;59820;55.076;38.766;2022-09-03T11:25:13;5.55;;;2.30;;
71947;SDS011;59820;55.076;38.766;2022-09-03T11:30:11;3.50;;;1.60;;
71947;SDS011;59820;55.076;38.766;2022-09-03T11:35:14;4.18;;;1.70;;
71947;SDS011;59820;55.076;38.766;2022-09-03T11:46:02;5.07;;;2.80;;
71947;SDS011;59820;55.076;38.766;2022-09-03T11:48:43;5.53;;;2.92;;
71947;SDS011;59820;55.076;38.766;2022-09-03T11:51:28;4.78;;;2.67;;
71947;SDS011;59820;55.076;38.766;2022-09-03T11:54:05;3.92;;;2.40;;
71947;SDS011;59820;55.076;38.766;2022-09-03T11:56:48;3.77;;;2.50;;
71947;SDS011;59820;55.076;38.766;2022-09-03T11:59:21;3.95;;;2.20;;
71947;SDS011;59820;55.076;38.766;2022-09-03T12:01:52;3.83;;;2.60;;
71947;SDS011;59820;55.076;38.766;2022-09-03T12:04:48;3.50;;;2.40;;
71947;SDS011;59820;55.076;38.766;2022-09-03T12:18:40;3.95;;;1.88;;
71947;SDS011;59820;55.076;38.766;2022-09-03T12:21:08;4.03;;;1.80;;
71947;SDS011;59820;55.076;38.766;2022-09-03T12:26:14;6.15;;;3.10;;
71947;SDS011;59820;55.076;38.766;2022-09-03T12:28:45;6.40;;;3.50;;
71947;SDS011;59820;55.076;38.766;2022-09-03T12:33:47;5.30;;;3.10;;
71947;SDS011;59820;55.076;38.766;2022-09-03T12:36:16;6.13;;;3.33;;
71947;SDS011;59820;55.076;38.766;2022-09-03T12:38:43;4.75;;;3.20;;
71947;SDS011;59820;55.076;38.766;2022-09-03T12:41:21;7.60;;;3.17;;
71947;SDS011;59820;55.076;38.766;2022-09-03T12:43:55;5.35;;;2.83;;
71947;SDS011;59820;55.076;38.766;2022-09-03T12:46:23;3.85;;;1.63;;
71947;SDS011;59820;55.076;38.766;2022-09-03T12:48:57;3.90;;;1.80;;
71947;SDS011;59820;55.076;38.766;2022-09-03T12:51:39;5.53;;;2.40;;
71947;SDS011;59820;55.076;38.766;2022-09-03T12:54:10;3.83;;;1.92;;
71947;SDS011;59820;55.076;38.766;2022-09-03T12:56:42;3.70;;;1.98;;
71947;SDS011;59820;55.076;38.766;2022-09-03T12:59:15;5.30;;;3.38;;
71947;SDS011;59820;55.076;38.766;2022-09-03T13:01:46;5.40;;;3.10;;
71947;SDS011;59820;55.076;38.766;2022-09-03T13:04:18;4.38;;;2.83;;
71947;SDS011;59820;55.076;38.766;2022-09-03T13:07:05;5.45;;;2.90;;
71947;SDS011;59820;55.076;38.766;2022-09-03T13:09:37;4.28;;;2.83;;
71947;SDS011;59820;55.076;38.766;2022-09-03T13:12:05;5.13;;;2.22;;
71947;SDS011;59820;55.076;38.766;2022-09-03T13:14:41;6.87;;;3.10;;
71947;SDS011;59820;55.076;38.766;2022-09-03T13:27:00;5.63;;;2.80;;
71947;SDS011;59820;55.076;38.766;2022-09-03T13:31:52;3.75;;;1.75;;
71947;SDS011;59820;55.076;38.766;2022-09-03T13:34:24;5.72;;;1.65;;
71947;SDS011;59820;55.076;38.766;2022-09-03T13:36:58;4.50;;;1.80;;
71947;SDS011;59820;55.076;38.766;2022-09-03T13:42:31;10.37;;;6.97;;
71947;SDS011;59820;55.076;38.766;2022-09-03T13:47:40;7.35;;;4.85;;
71947;SDS011;59820;55.076;38.766;2022-09-03T13:50:41;5.38;;;3.30;;
71947;SDS011;59820;55.076;38.766;2022-09-03T13:53:16;4.25;;;2.90;;
71947;SDS011;59820;55.076;38.766;2022-09-03T13:55:51;6.47;;;3.73;;
71947;SDS011;59820;55.076;38.766;2022-09-03T14:03:34;3.88;;;2.33;;
71947;SDS011;59820;55.076;38.766;2022-09-03T14:06:13;4.10;;;2.70;;
71947;SDS011;59820;55.076;38.766;2022-09-03T14:08:58;3.70;;;2.20;;
71947;SDS011;59820;55.076;38.766;2022-09-03T14:20:03;4.85;;;2.80;;
71947;SDS011;59820;55.076;38.766;2022-09-03T14:25:22;5.40;;;2.80;;
71947;SDS011;59820;55.076;38.766;2022-09-03T14:27:50;4.10;;;2.80;;
71947;SDS011;59820;55.076;38.766;2022-09-03T14:30:26;5.20;;;2.50;;
71947;SDS011;59820;55.076;38.766;2022-09-03T14:36:18;4.82;;;3.00;;
71947;SDS011;59820;55.076;38.766;2022-09-03T14:39:33;4.85;;;2.75;;
71947;SDS011;59820;55.076;38.766;2022-09-03T14:44:29;5.15;;;2.90;;
71947;SDS011;59820;55.076;38.766;2022-09-03T14:47:33;3.90;;;2.50;;
71947;SDS011;59820;55.076;38.766;2022-09-03T15:10:37;6.53;;;2.50;;
71947;SDS011;59820;55.076;38.766;2022-09-03T15:13:15;7.40;;;3.38;;
71947;SDS011;59820;55.076;38.766;2022-09-03T15:27:27;18.08;;;8.30;;
71947;SDS011;59820;55.076;38.766;2022-09-03T15:30:08;18.03;;;8.10;;
71947;SDS011;59820;55.076;38.766;2022-09-03T15:44:14;30.90;;;14.60;;
71947;SDS011;59820;55.076;38.766;2022-09-03T15:49:34;30.67;;;16.52;;
71947;SDS011;59820;55.076;38.766;2022-09-03T15:55:22;24.15;;;11.95;;
71947;SDS011;59820;55.076;38.766;2022-09-03T16:01:10;21.83;;;10.18;;
71947;SDS011;59820;55.076;38.766;2022-09-03T16:06:23;19.27;;;8.65;;
71947;SDS011;59820;55.076;38.766;2022-09-03T16:09:07;16.08;;;8.35;;
71947;SDS011;59820;55.076;38.766;2022-09-03T16:14:40;23.60;;;10.52;;
71947;SDS011;59820;55.076;38.766;2022-09-03T16:17:30;22.85;;;11.10;;
71947;SDS011;59820;55.076;38.766;2022-09-03T16:28:29;22.58;;;9.27;;
71947;SDS011;59820;55.076;38.766;2022-09-03T16:34:02;22.10;;;10.00;;
71947;SDS011;59820;55.076;38.766;2022-09-03T16:42:23;20.27;;;10.18;;
71947;SDS011;59820;55.076;38.766;2022-09-03T17:10:48;26.77;;;11.77;;
71947;SDS011;59820;55.076;38.766;2022-09-03T17:13:02;25.20;;;12.20;;
71947;SDS011;59820;55.076;38.766;2022-09-03T17:15:55;22.08;;;11.00;;
71947;SDS011;59820;55.076;38.766;2022-09-03T17:18:46;26.67;;;12.45;;
71947;SDS011;59820;55.076;38.766;2022-09-03T17:21:35;27.93;;;13.13;;
71947;SDS011;59820;55.076;38.766;2022-09-03T17:29:15;21.73;;;11.40;;
71947;SDS011;59820;55.076;38.766;2022-09-03T17:32:03;27.50;;;12.32;;
71947;SDS011;59820;55.076;38.766;2022-09-03T17:35:30;14.67;;;7.30;;
71947;SDS011;59820;55.076;38.766;2022-09-03T17:37:49;13.85;;;6.63;;
71947;SDS011;59820;55.076;38.766;2022-09-03T17:43:17;12.65;;;5.95;;
71947;SDS011;59820;55.076;38.766;2022-09-03T17:46:19;17.08;;;6.95;;
71947;SDS011;59820;55.076;38.766;2022-09-03T17:49:02;18.97;;;9.30;;
71947;SDS011;59820;55.076;38.766;2022-09-03T17:54:14;15.73;;;8.32;;
71947;SDS011;59820;55.076;38.766;2022-09-03T17:56:59;14.75;;;7.78;;
71947;SDS011;59820;55.076;38.766;2022-09-03T17:59:37;17.42;;;7.88;;
71947;SDS011;59820;55.076;38.766;2022-09-03T18:04:48;15.65;;;7.15;;
71947;SDS011;59820;55.076;38.766;2022-09-03T18:07:46;15.82;;;6.50;;
71947;SDS011;59820;55.076;38.766;2022-09-03T18:13:05;18.85;;;9.32;;
71947;SDS011;59820;55.076;38.766;2022-09-03T18:16:05;21.60;;;9.85;;
71947;SDS011;59820;55.076;38.766;2022-09-03T18:18:39;23.27;;;11.93;;
71947;SDS011;59820;55.076;38.766;2022-09-03T18:21:14;19.67;;;9.90;;
71947;SDS011;59820;55.076;38.766;2022-09-03T18:30:34;16.88;;;8.10;;
71947;SDS011;59820;55.076;38.766;2022-09-03T18:33:24;18.25;;;8.55;;
71947;SDS011;59820;55.076;38.766;2022-09-03T18:39:26;17.23;;;7.77;;
71947;SDS011;59820;55.076;38.766;2022-09-03T18:45:42;13.43;;;7.18;;
71947;SDS011;59820;55.076;38.766;2022-09-03T19:00:50;12.48;;;6.32;;
71947;SDS011;59820;55.076;38.766;2022-09-03T19:04:06;13.13;;;5.93;;
71947;SDS011;59820;55.076;38.766;2022-09-03T19:07:06;9.98;;;5.57;;
71947;SDS011;59820;55.076;38.766;2022-09-03T19:10:07;14.60;;;5.23;;
71947;SDS011;59820;55.076;38.766;2022-09-03T19:13:12;10.32;;;4.85;;
71947;SDS011;59820;55.076;38.766;2022-09-03T19:16:18;11.02;;;5.47;;
71947;SDS011;59820;55.076;38.766;2022-09-03T19:22:29;9.75;;;5.05;;
71947;SDS011;59820;55.076;38.766;2022-09-03T19:25:24;15.73;;;6.10;;
71947;SDS011;59820;55.076;38.766;2022-09-03T19:28:21;11.52;;;5.82;;
71947;SDS011;59820;55.076;38.766;2022-09-03T19:46:53;11.75;;;5.20;;
71947;SDS011;59820;55.076;38.766;2022-09-03T19:55:26;10.97;;;5.20;;
71947;SDS011;59820;55.076;38.766;2022-09-03T19:58:20;9.40;;;4.75;;
71947;SDS011;59820;55.076;38.766;2022-09-03T20:01:10;8.80;;;4.63;;
71947;SDS011;59820;55.076;38.766;2022-09-03T20:03:57;8.48;;;4.50;;
71947;SDS011;59820;55.076;38.766;2022-09-03T20:06:46;9.00;;;4.28;;
71947;SDS011;59820;55.076;38.766;2022-09-03T20:09:35;9.23;;;4.10;;
71947;SDS011;59820;55.076;38.766;2022-09-03T20:12:24;9.07;;;4.10;;
71947;SDS011;59820;55.076;38.766;2022-09-03T20:14:54;8.90;;;3.97;;
71947;SDS011;59820;55.076;38.766;2022-09-03T20:17:33;8.88;;;4.13;;
71947;SDS011;59820;55.076;38.766;2022-09-03T20:23:13;9.35;;;4.10;;
71947;SDS011;59820;55.076;38.766;2022-09-03T20:50:15;9.32;;;4.30;;
71947;SDS011;59820;55.076;38.766;2022-09-03T21:01:16;10.15;;;4.25;;
71947;SDS011;59820;55.076;38.766;2022-09-03T21:06:49;10.75;;;4.38;;
71947;SDS011;59820;55.076;38.766;2022-09-03T21:09:28;9.90;;;4.63;;
71947;SDS011;59820;55.076;38.766;2022-09-03T21:14:53;10.43;;;4.55;;
71947;SDS011;59820;55.076;38.766;2022-09-03T21:17:32;12.50;;;5.50;;
71947;SDS011;59820;55.076;38.766;2022-09-03T21:20:42;9.02;;;4.85;;
71947;SDS011;59820;55.076;38.766;2022-09-03T21:28:33;11.85;;;4.63;;
71947;SDS011;59820;55.076;38.766;2022-09-03T21:31:32;8.63;;;4.10;;
71947;SDS011;59820;55.076;38.766;2022-09-03T21:34:07;11.13;;;5.57;;
71947;SDS011;59820;55.076;38.766;2022-09-03T21:36:36;15.60;;;7.47;;
71947;SDS011;59820;55.076;38.766;2022-09-03T21:39:08;11.97;;;5.70;;
71947;SDS011;59820;55.076;38.766;2022-09-03T21:42:26;8.85;;;4.35;;
71947;SDS011;59820;55.076;38.766;2022-09-03T21:47:05;11.35;;;4.70;;
71947;SDS011;59820;55.076;38.766;2022-09-03T21:49:36;8.77;;;4.32;;
71947;SDS011;59820;55.076;38.766;2022-09-03T21:52:07;9.00;;;4.40;;
71947;SDS011;59820;55.076;38.766;2022-09-03T21:54:39;9.35;;;4.60;;
71947;SDS011;59820;55.076;38.766;2022-09-03T22:02:38;8.50;;;4.50;;
71947;SDS011;59820;55.076;38.766;2022-09-03T22:05:05;11.00;;;4.63;;